Time;durP1;ratioP1;P1;durP2;ratioP2;P2;SDS_P1;SDS_P2;PMS_P1;PMS_P2;Temp;Humidity;BMP_temperature;BMP_pressure;BME280_temperature;BME280_humidity;BME280_pressure;Samples;Min_cycle;Max_cycle;Signal;HPM_P1;HPM_P2
2021/01/31 00:02:26;;;;;;;2.47;0.22;;;8.80;99.90;;;;;;5088635;28;20043;-51
2021/01/31 00:04:53;;;;;;;3.33;0.35;;;8.80;99.90;;;;;;5080898;28;20056;-49
2021/01/31 00:07:19;;;;;;;1.75;0.40;;;8.80;99.90;;;;;;5071607;28;20119;-49
2021/01/31 00:09:49;;;;;;;5.45;0.40;;;8.80;99.90;;;;;;5086854;28;20113;-51
2021/01/31 00:12:16;;;;;;;2.40;0.30;;;8.70;99.90;;;;;;5086960;28;20731;-49
2021/01/31 00:14:42;;;;;;;3.13;0.40;;;8.70;99.90;;;;;;5088949;28;20051;-51
2021/01/31 00:17:08;;;;;;;7.57;0.60;;;8.70;99.90;;;;;;5082625;28;20051;-50
2021/01/31 00:19:36;;;;;;;3.00;0.30;;;8.80;99.90;;;;;;5082288;28;20050;-49
2021/01/31 00:22:02;;;;;;;2.35;0.40;;;8.80;99.90;;;;;;5085058;28;20048;-50
2021/01/31 00:24:29;;;;;;;2.95;1.02;;;8.80;99.90;;;;;;5086557;28;20052;-49
2021/01/31 00:26:57;;;;;;;4.75;0.50;;;8.70;99.90;;;;;;5079132;28;20048;-50
2021/01/31 00:29:24;;;;;;;2.45;0.50;;;8.70;99.90;;;;;;5081101;28;20068;-50
2021/01/31 00:31:51;;;;;;;3.15;0.50;;;8.70;99.90;;;;;;5072337;28;20460;-49
2021/01/31 00:34:21;;;;;;;2.90;0.25;;;8.70;99.90;;;;;;5084786;28;20055;-50
2021/01/31 00:36:49;;;;;;;1.58;0.30;;;8.70;99.90;;;;;;5088275;28;20119;-50
2021/01/31 00:39:16;;;;;;;3.53;0.32;;;8.70;99.90;;;;;;5076527;28;20402;-49
2021/01/31 00:41:43;;;;;;;3.45;0.20;;;8.70;99.90;;;;;;5086181;28;20506;-50
2021/01/31 00:44:11;;;;;;;3.47;0.52;;;8.70;99.90;;;;;;5087211;28;20055;-50
2021/01/31 00:46:41;;;;;;;2.05;0.30;;;8.80;99.90;;;;;;5089162;28;20047;-52
2021/01/31 00:49:09;;;;;;;0.52;0.30;;;8.80;99.90;;;;;;5076971;28;20059;-51
2021/01/31 00:51:36;;;;;;;1.13;0.30;;;8.70;99.90;;;;;;5089194;28;20066;-49
2021/01/31 00:54:03;;;;;;;1.92;0.30;;;8.70;99.90;;;;;;5086635;28;20048;-50
2021/01/31 00:56:31;;;;;;;1.35;0.25;;;8.70;99.90;;;;;;5087141;28;20054;-51
2021/01/31 00:58:57;;;;;;;4.72;0.43;;;8.80;99.90;;;;;;5089285;28;20051;-49
2021/01/31 01:01:24;;;;;;;1.38;0.30;;;8.80;99.90;;;;;;5083625;28;20047;-49
2021/01/31 01:03:50;;;;;;;1.80;0.20;;;8.80;99.90;;;;;;5055933;28;20055;-50
2021/01/31 01:06:17;;;;;;;3.40;0.30;;;8.90;99.90;;;;;;5083824;28;20039;-50
2021/01/31 01:08:43;;;;;;;5.15;0.30;;;8.90;99.90;;;;;;5081308;28;20048;-52
2021/01/31 01:11:10;;;;;;;2.58;0.30;;;8.90;99.90;;;;;;5078544;28;20067;-49
2021/01/31 01:13:36;;;;;;;3.40;0.40;;;8.80;99.90;;;;;;5087150;28;20074;-49
2021/01/31 01:16:03;;;;;;;1.35;0.20;;;8.80;99.90;;;;;;5072403;28;20063;-49
2021/01/31 01:18:29;;;;;;;0.65;0.10;;;8.70;99.90;;;;;;5086279;28;20044;-49
2021/01/31 01:20:56;;;;;;;0.22;0.00;;;8.40;99.90;;;;;;5091845;28;20064;-51
2021/01/31 01:23:22;;;;;;;0.10;0.00;;;8.00;99.90;;;;;;5087920;28;20056;-49
2021/01/31 01:25:49;;;;;;;0.65;0.00;;;7.70;99.90;;;;;;5086684;28;20055;-49
2021/01/31 01:28:16;;;;;;;0.95;0.00;;;7.30;99.90;;;;;;5090364;28;20044;-50
2021/01/31 01:30:42;;;;;;;0.20;0.00;;;7.00;99.90;;;;;;5081855;28;20056;-50
2021/01/31 01:33:09;;;;;;;0.10;0.00;;;6.90;99.90;;;;;;5081252;28;20047;-49
2021/01/31 01:35:36;;;;;;;0.80;0.00;;;6.60;99.90;;;;;;5084738;28;20054;-50
2021/01/31 01:38:02;;;;;;;0.00;0.00;;;6.50;99.90;;;;;;5083560;28;20060;-49
2021/01/31 01:40:38;;;;;;;0.05;0.00;;;6.60;99.90;;;;;;5081522;28;20059;-48
2021/01/31 01:43:05;;;;;;;0.10;0.00;;;6.60;99.90;;;;;;5079155;28;20049;-52
2021/01/31 01:45:32;;;;;;;0.10;0.05;;;6.60;99.90;;;;;;5077125;28;20064;-49
2021/01/31 01:48:10;;;;;;;0.10;0.00;;;6.70;99.90;;;;;;5075017;28;20441;-48
2021/01/31 01:50:45;;;;;;;0.00;0.00;;;6.80;99.90;;;;;;5082739;28;20392;-49
2021/01/31 01:53:13;;;;;;;0.28;0.10;;;6.80;99.90;;;;;;5084853;28;20465;-49
2021/01/31 01:56:21;;;;;;;0.00;0.00;;;6.70;99.90;;;;;;5088958;28;20055;-49
2021/01/31 01:58:48;;;;;;;0.00;0.00;;;6.70;99.90;;;;;;5078018;28;20389;-48
2021/01/31 02:01:20;;;;;;;0.00;0.00;;;6.60;99.90;;;;;;5059990;28;20052;-49
2021/01/31 02:03:47;;;;;;;0.00;0.00;;;6.60;99.90;;;;;;5091471;28;20048;-50
2021/01/31 02:06:15;;;;;;;0.00;0.00;;;6.60;99.90;;;;;;5087985;28;20055;-49
2021/01/31 02:08:42;;;;;;;0.00;0.00;;;6.70;99.90;;;;;;5093352;28;20056;-52
2021/01/31 02:11:10;;;;;;;0.00;0.00;;;6.70;99.90;;;;;;5083680;28;20052;-50
2021/01/31 02:13:40;;;;;;;0.28;0.00;;;6.70;99.90;;;;;;5079596;28;20048;-48
2021/01/31 02:16:23;;;;;;;0.30;0.00;;;6.70;99.90;;;;;;5079113;28;20129;-49
2021/01/31 02:19:20;;;;;;;0.00;0.00;;;6.70;99.90;;;;;;5088375;28;20063;-49
2021/01/31 02:22:24;;;;;;;0.00;0.00;;;6.80;99.90;;;;;;5084342;28;20081;-49
2021/01/31 02:25:08;;;;;;;;;;;6.70;99.90;;;;;;5093166;28;20055;-49
2021/01/31 02:27:56;;;;;;;0.00;0.00;;;6.70;99.90;;;;;;5090324;28;19928;-49
2021/01/31 02:30:38;;;;;;;0.00;0.00;;;6.60;99.90;;;;;;5088422;28;20055;-50
2021/01/31 02:33:27;;;;;;;0.00;0.00;;;6.60;99.90;;;;;;5080794;28;20399;-50
2021/01/31 02:36:03;;;;;;;0.00;0.00;;;6.60;99.90;;;;;;5092523;28;20404;-49
2021/01/31 02:38:38;;;;;;;0.00;0.00;;;6.60;99.90;;;;;;5088341;28;20052;-52
2021/01/31 02:41:11;;;;;;;0.00;0.00;;;6.60;99.90;;;;;;5083704;28;20044;-51
2021/01/31 02:43:45;;;;;;;0.00;0.00;;;6.60;99.90;;;;;;5090559;28;20052;-49
2021/01/31 02:46:18;;;;;;;0.00;0.00;;;6.70;99.90;;;;;;5088953;28;20044;-49
2021/01/31 02:48:52;;;;;;;0.00;0.00;;;6.70;99.90;;;;;;5086074;28;20044;-49
2021/01/31 02:51:26;;;;;;;;;;;6.70;99.90;;;;;;5085357;28;20052;-48
2021/01/31 02:54:03;;;;;;;0.00;0.00;;;6.70;99.90;;;;;;5080309;28;20377;-49
2021/01/31 02:56:39;;;;;;;0.00;0.00;;;6.60;99.90;;;;;;5077635;28;20052;-52
2021/01/31 02:59:13;;;;;;;0.00;0.00;;;6.50;99.90;;;;;;5085321;28;20114;-48
2021/01/31 03:01:47;;;;;;;0.00;0.00;;;6.50;99.90;;;;;;5089234;28;20075;-48
2021/01/31 03:04:49;;;;;;;0.00;0.00;;;6.60;99.90;;;;;;5080785;28;20082;-49
2021/01/31 03:07:21;;;;;;;0.00;0.00;;;6.60;99.90;;;;;;5075788;28;20075;-53
2021/01/31 03:10:02;;;;;;;0.00;0.00;;;6.60;99.90;;;;;;5074634;28;20396;-49
2021/01/31 03:12:54;;;;;;;0.00;0.00;;;6.60;99.90;;;;;;5089658;28;20063;-49
2021/01/31 03:15:26;;;;;;;0.77;0.00;;;6.50;99.90;;;;;;5087861;28;20059;-49
2021/01/31 03:18:01;;;;;;;0.00;0.00;;;6.40;99.90;;;;;;5088060;28;20733;-49
2021/01/31 03:20:37;;;;;;;0.00;0.00;;;6.40;99.90;;;;;;5095929;28;20044;-49
2021/01/31 03:23:14;;;;;;;0.00;0.00;;;6.40;99.90;;;;;;5087552;28;20074;-53
2021/01/31 03:25:50;;;;;;;0.00;0.00;;;6.30;99.90;;;;;;5074389;28;20044;-49
2021/01/31 03:28:16;;;;;;;0.00;0.00;;;6.40;99.90;;;;;;5090337;28;20488;-49
2021/01/31 03:30:45;;;;;;;0.00;0.00;;;6.40;99.90;;;;;;5088452;28;20093;-51
2021/01/31 03:33:25;;;;;;;0.00;0.00;;;6.40;99.90;;;;;;5074498;28;20044;-49
2021/01/31 03:35:54;;;;;;;1.08;0.00;;;6.40;99.90;;;;;;5083388;28;20110;-50
2021/01/31 03:38:33;;;;;;;0.10;0.00;;;6.40;99.90;;;;;;5077464;28;20094;-51
2021/01/31 03:41:06;;;;;;;0.00;0.00;;;6.40;99.90;;;;;;5076556;28;20123;-49
2021/01/31 03:43:33;;;;;;;0.10;0.00;;;6.40;99.90;;;;;;5085109;28;20063;-49
2021/01/31 03:46:11;;;;;;;0.00;0.00;;;6.30;99.90;;;;;;5074891;28;20055;-49
2021/01/31 03:48:49;;;;;;;0.00;0.00;;;6.40;99.90;;;;;;5091186;28;20048;-50
2021/01/31 03:51:17;;;;;;;0.10;0.00;;;6.40;99.90;;;;;;5083926;28;20052;-49
2021/01/31 03:53:43;;;;;;;0.10;0.00;;;6.40;99.90;;;;;;5077910;28;20056;-49
2021/01/31 03:56:13;;;;;;;0.10;0.00;;;6.40;99.90;;;;;;5088907;28;20044;-50
2021/01/31 03:58:44;;;;;;;0.10;0.00;;;6.40;99.90;;;;;;5086809;28;20048;-49
2021/01/31 04:01:12;;;;;;;0.40;0.10;;;6.40;99.90;;;;;;5076032;28;20477;-49
2021/01/31 04:03:47;;;;;;;0.40;0.20;;;6.40;99.90;;;;;;5086394;28;20405;-49
2021/01/31 04:06:19;;;;;;;1.05;0.30;;;6.30;99.90;;;;;;5088460;28;20381;-49
2021/01/31 04:08:52;;;;;;;0.75;0.20;;;6.30;99.90;;;;;;5083513;28;20048;-52
2021/01/31 04:11:34;;;;;;;0.10;0.10;;;6.30;99.90;;;;;;5081161;28;20040;-50
2021/01/31 04:14:10;;;;;;;0.20;0.10;;;6.30;99.90;;;;;;5073042;28;20049;-50
2021/01/31 04:16:44;;;;;;;0.10;0.00;;;6.20;99.90;;;;;;5079129;28;20075;-49
2021/01/31 04:19:12;;;;;;;0.10;0.10;;;6.10;99.90;;;;;;5079708;28;20052;-50
2021/01/31 04:21:39;;;;;;;6.25;1.55;;;6.10;99.90;;;;;;5089960;28;20048;-51
2021/01/31 04:24:06;;;;;;;0.75;0.60;;;6.10;99.90;;;;;;5086386;28;20067;-53
2021/01/31 04:26:34;;;;;;;0.10;0.10;;;6.10;99.90;;;;;;5082445;28;20488;-50
2021/01/31 04:29:01;;;;;;;0.00;0.00;;;6.10;99.90;;;;;;5079019;28;20048;-50
2021/01/31 04:31:28;;;;;;;0.10;0.10;;;6.00;99.90;;;;;;5081738;28;20051;-49
2021/01/31 04:33:55;;;;;;;0.00;0.00;;;6.00;99.90;;;;;;5087998;28;20379;-49
2021/01/31 04:36:23;;;;;;;0.10;0.08;;;6.00;99.90;;;;;;5087635;28;20040;-48
2021/01/31 04:38:50;;;;;;;0.10;0.10;;;6.10;99.90;;;;;;5086953;28;20044;-48
2021/01/31 04:41:17;;;;;;;0.10;0.00;;;6.10;99.90;;;;;;5087937;28;20070;-50
2021/01/31 04:43:44;;;;;;;0.10;0.00;;;6.10;99.90;;;;;;5085236;28;20155;-49
2021/01/31 04:46:18;;;;;;;0.10;0.05;;;6.10;99.90;;;;;;5079869;28;20045;-49
2021/01/31 04:49:11;;;;;;;0.00;0.00;;;6.10;99.90;;;;;;5090451;28;20079;-49
2021/01/31 04:52:16;;;;;;;0.05;0.00;;;6.10;99.90;;;;;;5081805;28;20036;-49
2021/01/31 04:54:55;;;;;;;0.10;0.00;;;6.00;99.90;;;;;;5076216;28;20082;-50
2021/01/31 04:57:34;;;;;;;0.00;0.00;;;6.00;99.90;;;;;;5076872;28;20045;-48
2021/01/31 05:00:04;;;;;;;0.00;0.00;;;5.90;99.90;;;;;;5081283;28;20055;-49
2021/01/31 05:02:43;;;;;;;0.00;0.00;;;5.90;99.90;;;;;;5086143;28;20037;-49
2021/01/31 05:05:30;;;;;;;0.08;0.00;;;5.90;99.90;;;;;;5079651;28;20094;-49
2021/01/31 05:08:00;;;;;;;0.10;0.00;;;5.90;99.90;;;;;;5081030;28;20056;-49
2021/01/31 05:10:27;;;;;;;0.10;0.00;;;6.00;99.90;;;;;;5077653;28;20051;-51
2021/01/31 05:13:15;;;;;;;0.00;0.00;;;6.00;99.90;;;;;;5088295;28;20055;-49
2021/01/31 05:16:01;;;;;;;0.10;0.00;;;6.00;99.90;;;;;;5084632;28;20052;-50
2021/01/31 05:18:30;;;;;;;0.00;0.00;;;5.90;99.90;;;;;;5070699;28;20053;-50
2021/01/31 05:21:01;;;;;;;0.00;0.00;;;6.00;99.90;;;;;;5087691;28;20581;-48
2021/01/31 05:23:33;;;;;;;0.10;0.00;;;6.00;99.90;;;;;;5079577;28;20515;-49
2021/01/31 05:25:59;;;;;;;0.00;0.00;;;6.00;99.90;;;;;;5089903;28;20052;-49
2021/01/31 05:28:29;;;;;;;0.52;0.00;;;6.00;99.90;;;;;;5084830;28;20044;-49
2021/01/31 05:30:57;;;;;;;0.00;0.00;;;6.00;99.90;;;;;;5088308;28;20048;-50
2021/01/31 05:33:23;;;;;;;0.55;0.10;;;6.00;99.90;;;;;;5078270;28;20063;-49
2021/01/31 05:35:53;;;;;;;51.00;0.80;;;6.10;99.90;;;;;;5084991;28;20396;-49
2021/01/31 05:38:38;;;;;;;88.68;1.30;;;5.90;99.90;;;;;;5077004;28;20056;-50
2021/01/31 05:41:31;;;;;;;86.38;1.40;;;5.90;99.90;;;;;;5087707;28;20061;-50
2021/01/31 05:44:05;;;;;;;9.07;0.35;;;5.80;99.90;;;;;;5083764;28;20049;-48
2021/01/31 05:46:46;;;;;;;0.40;0.10;;;5.80;99.90;;;;;;5076009;28;20064;-50
2021/01/31 05:49:38;;;;;;;4.32;0.20;;;5.80;99.90;;;;;;5085242;28;20527;-49
2021/01/31 05:52:31;;;;;;;0.10;0.00;;;5.90;99.90;;;;;;5087008;28;20040;-49
2021/01/31 05:54:59;;;;;;;0.10;0.10;;;5.90;99.90;;;;;;5085679;28;20047;-49
2021/01/31 05:57:32;;;;;;;0.20;0.10;;;5.90;99.90;;;;;;5084285;28;20040;-50
2021/01/31 06:00:01;;;;;;;0.80;0.10;;;5.90;99.90;;;;;;5083914;28;20036;-49
2021/01/31 06:02:30;;;;;;;0.10;0.00;;;5.90;99.90;;;;;;5076263;28;20051;-52
2021/01/31 06:05:11;;;;;;;0.15;0.05;;;5.90;99.90;;;;;;5089122;28;20047;-52
2021/01/31 06:07:40;;;;;;;0.10;0.05;;;5.90;99.90;;;;;;5088163;28;20051;-50
2021/01/31 06:10:17;;;;;;;0.20;0.00;;;5.90;99.90;;;;;;5086759;28;20489;-50
2021/01/31 06:12:47;;;;;;;0.17;0.00;;;5.90;99.90;;;;;;5087204;28;20051;-50
2021/01/31 06:15:25;;;;;;;0.00;0.00;;;5.90;99.90;;;;;;5081542;28;20475;-50
2021/01/31 06:18:42;;;;;;;0.20;0.10;;;5.90;99.90;;;;;;5091793;28;20052;-50
2021/01/31 06:21:11;;;;;;;3.95;0.00;;;5.90;99.90;;;;;;4986233;28;20473;-49
2021/01/31 06:23:41;;;;;;;0.10;0.10;;;5.90;99.90;;;;;;4988159;28;20387;-49
2021/01/31 06:26:20;;;;;;;0.05;0.05;;;5.90;99.90;;;;;;4986912;28;20070;-49
2021/01/31 06:28:50;;;;;;;0.15;0.15;;;5.90;99.90;;;;;;4982816;28;20042;-51
2021/01/31 06:31:24;;;;;;;0.10;0.10;;;6.00;99.90;;;;;;4976375;28;20089;-50
2021/01/31 06:33:51;;;;;;;3.00;0.10;;;6.00;99.90;;;;;;4978561;28;20050;-49
2021/01/31 06:36:49;;;;;;;0.52;0.35;;;6.00;99.90;;;;;;4980446;28;20522;-48
2021/01/31 06:39:34;;;;;;;0.85;0.85;;;6.00;99.90;;;;;;4987313;28;20434;-49
2021/01/31 06:42:24;;;;;;;0.60;0.60;;;6.00;99.90;;;;;;4983117;28;20054;-52
2021/01/31 06:45:02;;;;;;;3.88;2.17;;;5.90;99.90;;;;;;4983425;28;20045;-50
2021/01/31 06:47:34;;;;;;;2.25;0.90;;;5.90;99.90;;;;;;4987721;28;20070;-51
2021/01/31 06:50:18;;;;;;;2.22;1.05;;;5.90;99.90;;;;;;4987974;28;20154;-52
2021/01/31 06:53:08;;;;;;;1.13;0.68;;;6.00;99.90;;;;;;4983217;28;20992;-49
2021/01/31 06:56:08;;;;;;;2.58;0.30;;;6.00;99.90;;;;;;5062057;28;20511;-49
2021/01/31 06:59:15;;;;;;;52.03;0.90;;;5.90;99.90;;;;;;5079475;28;20049;-49
2021/01/31 07:02:23;;;;;;;25.05;6.40;;;5.90;99.90;;;;;;5089863;28;20049;-49
2021/01/31 07:05:10;;;;;;;1.73;0.70;;;5.80;99.90;;;;;;5056498;28;20098;-49
2021/01/31 07:07:46;;;;;;;0.60;0.60;;;5.80;99.90;;;;;;5086171;28;20062;-49
2021/01/31 07:10:43;;;;;;;2.05;0.38;;;5.80;99.90;;;;;;5084315;28;20328;-49
2021/01/31 07:13:36;;;;;;;1.65;0.60;;;5.80;99.90;;;;;;5085271;28;20063;-50
2021/01/31 07:16:35;;;;;;;0.40;0.30;;;5.80;99.90;;;;;;5078440;28;20476;-49
2021/01/31 07:19:17;;;;;;;1.33;0.50;;;5.80;99.90;;;;;;5065072;28;20052;-50
2021/01/31 07:21:52;;;;;;;4.35;1.25;;;5.80;99.90;;;;;;5083212;28;20056;-50
2021/01/31 07:24:50;;;;;;;1.40;1.02;;;5.80;99.90;;;;;;5082370;28;20412;-50
2021/01/31 07:27:46;;;;;;;0.93;0.70;;;5.80;99.90;;;;;;5079386;28;20045;-48
2021/01/31 07:30:27;;;;;;;0.30;0.20;;;5.90;99.90;;;;;;5090459;28;20226;-49
2021/01/31 07:33:13;;;;;;;1.17;0.57;;;5.90;99.90;;;;;;5089159;28;20056;-49
2021/01/31 07:35:55;;;;;;;3.45;3.15;;;5.90;99.90;;;;;;5073971;28;20109;-50
2021/01/31 07:38:47;;;;;;;10.38;6.68;;;6.00;99.90;;;;;;5085387;28;20054;-49
2021/01/31 07:41:15;;;;;;;1.52;1.42;;;6.00;99.90;;;;;;5082856;28;20435;-49
2021/01/31 07:43:43;;;;;;;14.40;8.35;;;6.00;99.90;;;;;;5078385;28;20447;-48
2021/01/31 07:46:16;;;;;;;25.85;17.38;;;6.00;99.90;;;;;;5086556;28;20051;-49
2021/01/31 07:48:51;;;;;;;12.40;8.45;;;6.10;99.90;;;;;;5078677;28;20754;-49
2021/01/31 07:51:58;;;;;;;49.45;11.95;;;6.10;99.90;;;;;;5074689;28;20413;-49
2021/01/31 07:54:34;;;;;;;23.40;7.45;;;6.10;99.90;;;;;;5067606;28;20052;-49
2021/01/31 07:57:39;;;;;;;51.50;14.80;;;6.10;99.90;;;;;;5082085;28;20044;-48
2021/01/31 08:00:12;;;;;;;24.00;9.13;;;6.10;99.90;;;;;;5085058;28;20040;-49
2021/01/31 08:02:42;;;;;;;63.95;11.95;;;6.10;99.90;;;;;;5070479;28;20063;-49
2021/01/31 08:05:13;;;;;;;104.65;12.13;;;6.20;99.90;;;;;;5086202;28;20050;-48
2021/01/31 08:08:00;;;;;;;10.95;4.88;;;6.20;99.90;;;;;;5083850;28;20407;-51
2021/01/31 08:10:49;;;;;;;4.38;3.03;;;6.20;99.90;;;;;;5080274;28;20048;-51
2021/01/31 08:13:33;;;;;;;0.95;0.90;;;6.20;99.90;;;;;;5088435;28;20051;-49
2021/01/31 08:16:01;;;;;;;4.68;1.70;;;6.20;99.90;;;;;;5085722;28;20067;-52
2021/01/31 08:18:27;;;;;;;3.03;1.58;;;6.20;99.90;;;;;;5079615;28;20051;-49
2021/01/31 08:20:54;;;;;;;3.53;1.95;;;6.30;99.90;;;;;;5078640;28;20070;-49
2021/01/31 08:23:23;;;;;;;1.00;0.90;;;6.40;99.90;;;;;;5091036;28;20044;-52
2021/01/31 08:26:01;;;;;;;1.98;0.98;;;6.40;99.90;;;;;;5084056;28;20044;-49
2021/01/31 08:28:53;;;;;;;2.97;0.98;;;6.40;99.90;;;;;;5082056;28;20044;-49
2021/01/31 08:31:20;;;;;;;0.73;0.70;;;6.30;99.90;;;;;;5077296;28;20162;-49
2021/01/31 08:34:03;;;;;;;1.13;0.88;;;6.40;99.90;;;;;;5081983;28;20052;-51
2021/01/31 08:36:31;;;;;;;;;;;6.50;99.90;;;;;;5087181;28;20729;-49
2021/01/31 08:38:59;;;;;;;2.78;1.67;;;6.60;99.90;;;;;;5090168;28;19928;-50
2021/01/31 08:41:25;;;;;;;43.30;23.52;;;6.60;99.90;;;;;;5086529;28;20044;-49
2021/01/31 08:43:58;;;;;;;11.80;6.65;;;6.70;99.90;;;;;;5080487;28;20434;-48
2021/01/31 08:46:29;;;;;;;1.83;0.80;;;6.70;99.90;;;;;;5088220;28;20043;-49
2021/01/31 08:49:00;;;;;;;7.45;2.67;;;6.80;99.90;;;;;;5085324;28;20048;-51
2021/01/31 08:51:32;;;;;;;3.22;1.50;;;6.80;99.90;;;;;;5089459;28;20066;-50
2021/01/31 08:54:11;;;;;;;3.53;1.80;;;6.80;99.90;;;;;;5085711;28;20052;-49
2021/01/31 08:56:45;;;;;;;1.63;0.80;;;6.80;99.90;;;;;;5086771;28;20055;-51
2021/01/31 08:59:36;;;;;;;2.00;1.02;;;6.90;99.90;;;;;;5085073;28;20048;-52
2021/01/31 09:02:16;;;;;;;6.55;3.58;;;6.90;99.90;;;;;;5081816;28;20075;-49
2021/01/31 09:04:45;;;;;;;14.80;9.70;;;6.90;99.90;;;;;;5073094;28;20644;-49
2021/01/31 09:07:19;;;;;;;0.57;0.57;;;6.90;99.90;;;;;;5088962;28;20063;-49
2021/01/31 09:09:55;;;;;;;6.75;5.38;;;6.90;99.90;;;;;;5083581;28;20049;-50
2021/01/31 09:12:24;;;;;;;0.88;0.80;;;6.90;99.90;;;;;;5074745;28;20732;-49
2021/01/31 09:14:51;;;;;;;6.47;3.83;;;7.00;99.90;;;;;;5088066;28;20057;-49
2021/01/31 09:17:26;;;;;;;10.82;6.00;;;7.00;99.90;;;;;;5076357;28;20059;-52
2021/01/31 09:20:20;;;;;;;6.10;5.03;;;7.10;99.90;;;;;;5092735;28;20047;-50
2021/01/31 09:22:49;;;;;;;5.38;3.13;;;7.10;99.90;;;;;;5080787;28;20052;-49
2021/01/31 09:25:20;;;;;;;3.75;2.05;;;7.10;99.90;;;;;;5081141;28;20051;-49
2021/01/31 09:28:01;;;;;;;3.85;2.15;;;7.20;99.90;;;;;;5087062;28;20403;-49
2021/01/31 09:30:29;;;;;;;1.00;0.80;;;7.20;99.90;;;;;;5082804;28;20060;-50
2021/01/31 09:33:02;;;;;;;2.08;1.20;;;7.30;99.90;;;;;;5085949;28;20040;-49
2021/01/31 09:35:33;;;;;;;3.03;1.10;;;7.40;99.90;;;;;;5088935;28;20052;-52
2021/01/31 09:38:28;;;;;;;3.17;0.70;;;7.40;99.90;;;;;;5086120;28;20300;-51
2021/01/31 09:40:57;;;;;;;1.17;0.80;;;7.50;99.90;;;;;;5079187;28;20056;-49
2021/01/31 09:43:28;;;;;;;2.25;0.80;;;7.50;99.90;;;;;;5089278;28;20048;-49
2021/01/31 09:45:57;;;;;;;1.25;0.50;;;7.60;99.90;;;;;;5079702;28;20389;-49
2021/01/31 09:48:30;;;;;;;1.10;0.70;;;7.70;99.90;;;;;;5075312;28;20913;-52
2021/01/31 09:51:01;;;;;;;0.63;0.50;;;7.80;99.90;;;;;;5080579;28;20049;-49
2021/01/31 09:53:40;;;;;;;2.78;0.40;;;7.90;99.90;;;;;;5078377;28;20822;-53
2021/01/31 09:56:32;;;;;;;0.35;0.30;;;7.90;99.90;;;;;;5090272;28;20059;-52
2021/01/31 09:59:00;;;;;;;0.30;0.20;;;8.00;99.90;;;;;;5086815;28;20047;-49
2021/01/31 10:01:29;;;;;;;0.30;0.22;;;8.00;99.90;;;;;;5077925;28;20496;-49
2021/01/31 10:04:00;;;;;;;3.40;0.30;;;8.00;99.90;;;;;;5078256;28;20053;-49
2021/01/31 10:06:39;;;;;;;0.45;0.40;;;8.10;99.90;;;;;;5079630;28;20490;-51
2021/01/31 10:09:05;;;;;;;2.72;0.90;;;8.10;99.90;;;;;;5086693;28;20443;-49
2021/01/31 10:11:41;;;;;;;0.55;0.40;;;8.20;99.90;;;;;;5079070;28;20047;-50
2021/01/31 10:14:31;;;;;;;2.45;0.50;;;8.20;99.90;;;;;;5081627;28;20051;-50
2021/01/31 10:17:18;;;;;;;0.85;0.40;;;8.10;99.90;;;;;;5080822;28;20492;-50
2021/01/31 10:19:45;;;;;;;1.05;0.40;;;8.10;99.90;;;;;;5023754;28;20068;-49
2021/01/31 10:22:24;;;;;;;0.57;0.40;;;8.10;99.90;;;;;;5025359;28;20076;-52
2021/01/31 10:24:52;;;;;;;0.60;0.40;;;8.20;99.90;;;;;;5012328;28;20058;-48
2021/01/31 10:27:23;;;;;;;0.40;0.40;;;8.20;99.90;;;;;;5025632;28;20052;-51
2021/01/31 10:29:52;;;;;;;0.40;0.40;;;8.30;99.90;;;;;;5026153;28;20570;-49
2021/01/31 10:32:26;;;;;;;3.08;0.40;;;8.40;99.90;;;;;;5029411;28;20049;-49
2021/01/31 10:34:55;;;;;;;0.55;0.40;;;8.40;99.90;;;;;;5023219;28;20053;-50
2021/01/31 10:37:38;;;;;;;0.90;0.60;;;8.50;99.90;;;;;;5014854;28;20066;-51
2021/01/31 10:40:05;;;;;;;2.53;0.70;;;8.60;99.90;;;;;;5027616;28;20146;-50
2021/01/31 10:42:32;;;;;;;0.77;0.60;;;8.70;99.90;;;;;;5025495;28;20457;-49
2021/01/31 10:45:14;;;;;;;0.10;0.10;;;8.70;99.90;;;;;;5017043;28;20049;-51
2021/01/31 10:47:43;;;;;;;0.45;0.10;;;8.70;99.90;;;;;;5026450;28;20049;-49
2021/01/31 10:50:11;;;;;;;1.48;0.20;;;8.70;99.90;;;;;;5026027;28;20052;-49
2021/01/31 10:52:38;;;;;;;0.20;0.10;;;8.70;99.90;;;;;;5027698;28;20060;-51
2021/01/31 10:55:05;;;;;;;0.22;0.13;;;8.60;99.90;;;;;;5022028;28;20756;-49
2021/01/31 10:57:31;;;;;;;0.13;0.10;;;8.70;99.90;;;;;;5063791;28;20048;-51
2021/01/31 10:59:58;;;;;;;0.90;0.20;;;8.70;99.90;;;;;;5082858;28;20043;-52
2021/01/31 11:02:24;;;;;;;0.20;0.20;;;8.80;99.90;;;;;;5080829;28;20741;-50
2021/01/31 11:05:07;;;;;;;1.25;0.20;;;8.80;99.90;;;;;;5076793;28;20052;-49
2021/01/31 11:07:34;;;;;;;1.60;0.20;;;8.80;99.90;;;;;;5087969;28;20404;-49
2021/01/31 11:10:01;;;;;;;0.40;0.10;;;8.80;99.90;;;;;;5074441;28;20059;-52
2021/01/31 11:12:27;;;;;;;0.40;0.20;;;8.80;99.90;;;;;;5061793;28;20051;-52
2021/01/31 11:14:54;;;;;;;1.23;0.30;;;8.90;99.90;;;;;;5078009;28;20051;-49
2021/01/31 11:17:22;;;;;;;0.45;0.40;;;9.00;99.90;;;;;;5084731;28;20036;-49
2021/01/31 11:19:48;;;;;;;0.20;0.10;;;9.00;99.90;;;;;;5082790;28;20048;-49
2021/01/31 11:22:15;;;;;;;2.15;0.20;;;9.00;99.90;;;;;;5079118;28;20044;-52
2021/01/31 11:24:41;;;;;;;1.40;0.30;;;9.00;99.90;;;;;;5088275;28;20056;-49
2021/01/31 11:27:08;;;;;;;0.70;0.30;;;9.00;99.90;;;;;;5078285;28;20067;-52
2021/01/31 11:29:35;;;;;;;2.55;0.50;;;9.00;99.90;;;;;;5087835;28;20484;-51
2021/01/31 11:32:02;;;;;;;2.80;0.95;;;9.10;99.90;;;;;;5084299;28;20044;-50
2021/01/31 11:34:28;;;;;;;2.60;1.73;;;9.10;99.90;;;;;;5078814;28;20058;-51
2021/01/31 11:36:54;;;;;;;4.13;2.15;;;9.10;99.90;;;;;;5082845;28;20055;-50
2021/01/31 11:39:21;;;;;;;8.30;3.53;;;9.20;99.90;;;;;;5082323;28;20055;-50
2021/01/31 11:41:48;;;;;;;22.73;11.85;;;9.20;99.90;;;;;;5083014;28;20400;-52
2021/01/31 11:44:14;;;;;;;12.20;5.70;;;9.20;99.90;;;;;;5065822;28;20040;-50
2021/01/31 11:46:41;;;;;;;5.72;1.50;;;9.20;99.90;;;;;;5081490;28;20055;-49
2021/01/31 11:49:08;;;;;;;2.70;1.15;;;9.20;99.90;;;;;;5087819;28;20039;-49
2021/01/31 11:51:34;;;;;;;1.08;0.50;;;9.20;99.90;;;;;;5082774;28;20123;-49
2021/01/31 11:54:01;;;;;;;1.83;0.50;;;9.20;99.90;;;;;;5085027;28;20059;-50
2021/01/31 11:56:28;;;;;;;0.40;0.30;;;9.20;99.90;;;;;;5086744;28;20044;-49
2021/01/31 11:58:54;;;;;;;1.40;0.45;;;9.20;99.90;;;;;;5063512;28;20056;-50
2021/01/31 12:01:21;;;;;;;1.48;0.65;;;9.20;99.90;;;;;;5089717;28;20052;-50
2021/01/31 12:03:47;;;;;;;0.85;0.60;;;9.30;99.90;;;;;;5088849;28;20066;-50
2021/01/31 12:06:14;;;;;;;2.15;0.60;;;9.30;99.90;;;;;;5058953;28;20045;-51
2021/01/31 12:08:40;;;;;;;0.50;0.47;;;9.40;99.90;;;;;;5083730;28;20048;-50
2021/01/31 12:11:07;;;;;;;0.22;0.20;;;9.30;99.90;;;;;;5070815;28;20377;-48
2021/01/31 12:13:34;;;;;;;0.60;0.20;;;9.30;99.90;;;;;;5088413;28;20052;-50
2021/01/31 12:16:01;;;;;;;0.57;0.50;;;9.30;99.90;;;;;;5079188;28;20376;-49
2021/01/31 12:18:28;;;;;;;2.25;0.50;;;9.30;99.90;;;;;;5075827;28;20045;-52
2021/01/31 12:20:54;;;;;;;14.00;4.55;;;9.30;99.90;;;;;;5083150;28;20048;-50
2021/01/31 12:23:21;;;;;;;3.38;1.10;;;9.40;99.90;;;;;;5088421;28;20048;-50
2021/01/31 12:25:48;;;;;;;2.15;1.00;;;9.50;99.90;;;;;;5080597;28;20052;-51
2021/01/31 12:28:15;;;;;;;2.38;1.20;;;9.50;99.90;;;;;;5083309;28;20044;-49
2021/01/31 12:30:42;;;;;;;1.00;0.90;;;9.50;99.90;;;;;;5080841;28;20150;-52
2021/01/31 12:33:09;;;;;;;3.72;1.48;;;9.50;99.90;;;;;;5085217;28;20055;-49
2021/01/31 12:35:36;;;;;;;2.22;0.80;;;9.60;99.90;;;;;;5087937;28;20047;-50
2021/01/31 12:38:04;;;;;;;1.17;0.70;;;9.60;99.90;;;;;;5090351;28;20052;-50
2021/01/31 12:40:32;;;;;;;1.67;0.80;;;9.60;99.90;;;;;;5083451;28;20052;-49
2021/01/31 12:43:00;;;;;;;3.15;0.90;;;9.60;99.90;;;;;;5084594;28;20051;-50
2021/01/31 12:45:28;;;;;;;1.23;1.10;;;9.50;99.90;;;;;;5086682;28;20052;-50
2021/01/31 12:47:55;;;;;;;2.08;1.25;;;9.50;99.90;;;;;;5073486;28;20052;-50
2021/01/31 12:50:25;;;;;;;1.33;0.70;;;9.60;99.90;;;;;;5071805;28;20484;-49
2021/01/31 12:52:52;;;;;;;3.75;0.80;;;9.70;99.90;;;;;;5086082;28;20058;-50
2021/01/31 12:55:18;;;;;;;1.90;0.60;;;9.60;99.90;;;;;;5089898;28;20072;-49
2021/01/31 12:57:45;;;;;;;1.27;0.75;;;9.60;99.90;;;;;;5087572;28;20044;-52
2021/01/31 13:00:16;;;;;;;2.85;0.90;;;9.60;99.90;;;;;;5078325;28;20043;-49
2021/01/31 13:02:43;;;;;;;1.98;0.60;;;9.70;99.90;;;;;;5090115;28;20479;-49
2021/01/31 13:05:11;;;;;;;1.20;1.00;;;9.70;99.90;;;;;;5085933;28;20055;-49
2021/01/31 13:07:37;;;;;;;12.50;4.05;;;9.60;99.90;;;;;;5072615;28;20060;-52
2021/01/31 13:10:05;;;;;;;2.10;1.00;;;9.70;99.90;;;;;;5089291;28;20498;-49
2021/01/31 13:12:32;;;;;;;3.60;1.15;;;9.80;99.90;;;;;;5085890;28;20036;-51
2021/01/31 13:14:58;;;;;;;1.27;0.85;;;9.80;99.90;;;;;;5081725;28;20408;-51
2021/01/31 13:17:25;;;;;;;3.72;1.20;;;10.00;99.90;;;;;;5085606;28;20075;-50
2021/01/31 13:19:51;;;;;;;1.88;1.10;;;10.10;99.90;;;;;;5074133;28;20082;-50
2021/01/31 13:22:18;;;;;;;2.65;2.42;;;10.10;99.90;;;;;;5087357;28;20059;-52
2021/01/31 13:24:45;;;;;;;0.08;0.00;;;10.10;99.90;;;;;;5086245;28;20052;-52
2021/01/31 13:27:11;;;;;;;0.00;0.00;;;10.10;99.90;;;;;;5088173;28;20044;-49
2021/01/31 13:29:38;;;;;;;0.10;0.00;;;10.20;99.90;;;;;;5084734;28;20400;-51
2021/01/31 13:32:06;;;;;;;0.10;0.00;;;10.30;99.90;;;;;;5077397;28;20075;-51